Villa Rumipal, Argentina
Current Conditions -  °F | °C
As of 9:00 AM on Thursday 30 Oct 2014 (Local Time) from SACO Reporting Station
Scattered Clouds Scattered Clouds  
Wind Chill: 64°   Ceiling: Unl
Heat Index: 64°   Visibility: 6mi
Dew Point: 52°   Wind: 7mph
Humidity: 64%   Direction: 140°SE
Pressure: 29.97"   Gusts: NA
Location:  32.18°S, 64.48°W
Report Text: SACO 301200Z 14006KT 9999 SCT020 SCT10018/11 Q1015
Loading
Personal Weather Stations






























Interactive Weather Map New forecast layout! Learn more

10-Day Weather Forecast

Advertisements
Track Severe Weather on mobile